Time;durP1;ratioP1;P1;durP2;ratioP2;P2;SDS_P1;SDS_P2;PMS_P1;PMS_P2;Temp;Humidity;BMP_temperature;BMP_pressure;BME280_temperature;BME280_humidity;BME280_pressure;Samples;Min_cycle;Max_cycle;Signal;HPM_P1;HPM_P2
2021/03/15 00:01:11;;;;;;;49.67;28.12;;;;;;;2.37;97.59;98538.78;1862421;77;21449;-70
2021/03/15 00:03:39;;;;;;;59.15;29.50;;;;;;;2.37;97.65;98537.44;1828530;78;20982;-70
2021/03/15 00:06:07;;;;;;;52.20;26.73;;;;;;;2.39;97.63;98538.50;1862299;77;20985;-70
2021/03/15 00:08:34;;;;;;;52.20;28.75;;;;;;;2.39;97.65;98539.31;1862341;77;21376;-70
2021/03/15 00:11:01;;;;;;;50.23;27.22;;;;;;;2.39;97.64;98540.66;1828689;78;21056;-70
2021/03/15 00:13:30;;;;;;;54.40;28.98;;;;;;;2.39;97.62;98537.14;1828820;78;21544;-70
2021/03/15 00:15:59;;;;;;;59.73;31.65;;;;;;;2.39;97.66;98544.73;1862444;77;20962;-70
2021/03/15 00:18:26;;;;;;;66.53;34.83;;;;;;;2.39;97.61;98552.85;1862511;77;20982;-70
2021/03/15 00:20:54;;;;;;;55.45;30.57;;;;;;;2.39;97.65;98550.14;1828704;78;22077;-70
2021/03/15 00:23:22;;;;;;;69.95;39.23;;;;;;;2.38;97.72;98555.30;1828652;78;21068;-70
2021/03/15 00:25:50;;;;;;;78.62;43.68;;;;;;;2.39;97.77;98551.50;1862489;77;21128;-70
2021/03/15 00:28:18;;;;;;;75.75;41.85;;;;;;;2.40;97.84;98551.77;1828755;78;21108;-70
2021/03/15 00:30:45;;;;;;;78.60;43.38;;;;;;;2.41;97.80;98547.95;1862567;77;21005;-69
2021/03/15 00:33:12;;;;;;;71.25;39.75;;;;;;;2.41;97.75;98542.54;1828675;78;21268;-68
2021/03/15 00:35:41;;;;;;;63.02;32.65;;;;;;;2.40;97.65;98549.59;1862413;77;21073;-69
2021/03/15 00:38:09;;;;;;;64.42;33.38;;;;;;;2.38;97.63;98534.18;1828770;78;20978;-69
2021/03/15 00:40:36;;;;;;;62.00;33.45;;;;;;;2.36;97.61;98538.53;1862564;77;21112;-69
2021/03/15 00:43:04;;;;;;;63.87;35.38;;;;;;;2.35;97.59;98540.98;1862579;77;21441;-69
2021/03/15 00:45:31;;;;;;;57.70;30.68;;;;;;;2.32;97.75;98541.00;1828660;78;21652;-69
2021/03/15 00:47:59;;;;;;;55.92;28.70;;;;;;;2.33;97.86;98539.09;1828768;78;21556;-69
2021/03/15 00:50:34;;;;;;;63.73;31.52;;;;;;;2.32;97.86;98539.64;1860084;77;21054;-69
2021/03/15 00:53:02;;;;;;;64.03;31.17;;;;;;;2.34;97.95;98540.72;1771457;81;20950;-69
2021/03/15 00:55:29;;;;;;;64.90;32.38;;;;;;;2.34;97.94;98543.42;1769967;81;21109;-70
2021/03/15 00:57:57;;;;;;;61.83;31.68;;;;;;;2.36;97.93;98540.42;1752231;81;21612;-71
2021/03/15 01:00:30;;;;;;;57.10;28.47;;;;;;;2.38;97.98;98532.83;1802807;79;21163;-71
2021/03/15 01:03:00;;;;;;;63.90;31.73;;;;;;;2.38;98.01;98518.73;1770177;80;21104;-72
2021/03/15 01:05:33;;;;;;;63.02;31.20;;;;;;;2.39;97.98;98525.77;1802821;79;21096;-72
2021/03/15 01:08:01;;;;;;;62.05;31.35;;;;;;;2.40;97.97;98531.45;1803021;79;21069;-71
2021/03/15 01:10:29;;;;;;;65.37;33.55;;;;;;;2.41;97.92;98522.77;1771452;81;21267;-71
2021/03/15 01:12:56;;;;;;;66.45;32.08;;;;;;;2.41;97.91;98526.83;1802795;79;21204;-73
2021/03/15 01:15:24;;;;;;;62.08;31.87;;;;;;;2.41;97.87;98525.48;1771445;81;21069;-71
2021/03/15 01:17:54;;;;;;;72.97;34.15;;;;;;;2.39;97.83;98531.19;1802949;79;21083;-71
2021/03/15 01:20:21;;;;;;;73.35;37.23;;;;;;;2.40;97.78;98527.38;1771489;81;21060;-71
2021/03/15 01:22:49;;;;;;;65.20;33.83;;;;;;;2.40;97.80;98526.58;1802850;79;21450;-71
2021/03/15 01:25:16;;;;;;;73.35;35.00;;;;;;;2.40;97.79;98520.61;1771470;81;21619;-70
2021/03/15 01:27:43;;;;;;;69.03;35.92;;;;;;;2.41;97.78;98514.64;1802958;79;21493;-70
2021/03/15 01:30:14;;;;;;;66.30;33.23;;;;;;;2.41;97.76;98514.64;1771414;80;21048;-70
2021/03/15 01:32:41;;;;;;;77.67;35.92;;;;;;;2.40;97.78;98520.61;1802917;79;21071;-70
2021/03/15 01:35:09;;;;;;;75.37;33.60;;;;;;;2.42;97.86;98522.48;1802867;79;21216;-70
2021/03/15 01:37:37;;;;;;;75.12;33.60;;;;;;;2.41;97.93;98527.64;1771410;81;20982;-70
2021/03/15 01:40:06;;;;;;;85.57;35.90;;;;;;;2.41;98.01;98530.34;1802919;79;21556;-70
2021/03/15 01:42:33;;;;;;;95.53;39.10;;;;;;;2.40;98.12;98523.31;1771442;81;20930;-70
2021/03/15 01:45:01;;;;;;;91.02;38.17;;;;;;;2.42;98.31;98525.19;1802835;79;21473;-70
2021/03/15 01:47:28;;;;;;;81.17;35.65;;;;;;;2.42;98.48;98526.55;1771435;81;21194;-70
2021/03/15 01:49:57;;;;;;;92.67;35.52;;;;;;;2.43;98.60;98520.03;1802688;79;21147;-70
2021/03/15 01:52:27;;;;;;;86.53;36.58;;;;;;;2.46;98.66;98528.94;1814335;78;21544;-70
2021/03/15 01:54:54;;;;;;;80.80;35.35;;;;;;;2.46;98.67;98533.55;1793255;80;20913;-70
2021/03/15 01:57:22;;;;;;;87.33;34.95;;;;;;;2.46;98.74;98529.48;1810820;79;20950;-71
2021/03/15 01:59:49;;;;;;;76.92;34.55;;;;;;;2.48;98.80;98528.66;1793362;80;21798;-71
2021/03/15 02:02:17;;;;;;;76.67;35.45;;;;;;;2.47;98.79;98522.43;1810727;79;20935;-71
2021/03/15 02:04:44;;;;;;;79.55;35.28;;;;;;;2.47;98.71;98529.20;1793253;80;20903;-71
2021/03/15 02:07:13;;;;;;;79.10;34.75;;;;;;;2.49;98.69;98523.50;1807863;79;21107;-72
2021/03/15 02:09:41;;;;;;;80.53;34.53;;;;;;;2.49;98.70;98517.53;1793310;80;21460;-71
2021/03/15 02:12:43;;;;;;;95.83;40.40;;;;;;;2.51;98.75;98513.98;1810784;79;22363;-71
2021/03/15 02:15:19;;;;;;;101.05;41.20;;;;;;;2.53;98.79;98510.45;1760131;80;20974;-71
2021/03/15 02:18:07;;;;;;;108.83;46.58;;;;;;;2.54;98.85;98524.80;1810793;79;20968;-71
2021/03/15 02:20:52;;;;;;;103.87;43.60;;;;;;;2.54;98.92;98520.19;1793278;80;20926;-71
2021/03/15 02:23:36;;;;;;;106.85;42.23;;;;;;;2.53;99.00;98519.92;1810827;79;20979;-71
2021/03/15 02:26:35;;;;;;;119.05;44.30;;;;;;;2.52;99.18;98513.44;1793409;80;22122;-71
2021/03/15 02:29:40;;;;;;;104.72;39.35;;;;;;;2.51;99.33;98513.19;1810726;79;20938;-71
2021/03/15 02:32:43;;;;;;;99.35;36.05;;;;;;;2.49;99.47;98517.53;1793212;80;21143;-71
2021/03/15 02:35:12;;;;;;;102.38;38.58;;;;;;;2.47;99.76;98521.08;1810713;79;21042;-71
2021/03/15 02:37:53;;;;;;;109.37;38.42;;;;;;;2.43;99.99;98511.10;1791473;80;21471;-71
2021/03/15 02:40:39;;;;;;;105.35;36.80;;;;;;;2.40;100.00;98508.97;1810785;78;22254;-71
2021/03/15 02:43:26;;;;;;;97.55;36.33;;;;;;;2.39;100.00;98512.22;1793198;80;20938;-71
2021/03/15 02:45:59;;;;;;;105.43;37.00;;;;;;;2.37;100.00;98513.06;1810772;79;20943;-73
2021/03/15 02:48:28;;;;;;;104.00;37.33;;;;;;;2.40;100.00;98511.67;1793127;78;20985;-73
2021/03/15 02:50:55;;;;;;;99.87;36.35;;;;;;;2.42;100.00;98511.65;1810651;79;21481;-73
2021/03/15 02:53:23;;;;;;;100.90;36.17;;;;;;;2.42;100.00;98513.55;1793288;80;21195;-73
2021/03/15 02:55:56;;;;;;;104.78;38.28;;;;;;;2.44;100.00;98522.20;1784102;79;20907;-71
2021/03/15 02:58:23;;;;;;;100.72;38.92;;;;;;;2.46;100.00;98514.59;1793248;80;20878;-71
2021/03/15 03:00:50;;;;;;;96.80;36.15;;;;;;;2.47;100.00;98522.43;1810783;79;21485;-72
2021/03/15 03:03:18;;;;;;;96.12;35.55;;;;;;;2.49;100.00;98520.24;1793208;80;20969;-70
2021/03/15 03:05:46;;;;;;;108.55;37.85;;;;;;;2.50;100.00;98521.86;1810776;79;21189;-72
2021/03/15 03:08:17;;;;;;;103.02;36.23;;;;;;;2.51;100.00;98521.31;1793137;80;21384;-73
2021/03/15 03:10:47;;;;;;;122.17;41.95;;;;;;;2.51;100.00;98528.89;1810721;79;20950;-72
2021/03/15 03:13:18;;;;;;;121.40;40.80;;;;;;;2.53;100.00;98528.60;1793211;80;21472;-72
2021/03/15 03:15:45;;;;;;;110.85;39.65;;;;;;;2.52;100.00;98526.44;1807483;79;20908;-72
2021/03/15 03:18:15;;;;;;;110.37;41.13;;;;;;;2.54;100.00;98525.60;1813151;79;21811;-72
2021/03/15 03:20:44;;;;;;;102.15;40.35;;;;;;;2.56;100.00;98524.77;1798312;79;20929;-75
2021/03/15 03:23:11;;;;;;;114.55;41.23;;;;;;;2.56;100.00;98524.77;1782012;79;20933;-76
2021/03/15 03:25:38;;;;;;;102.20;40.28;;;;;;;2.53;100.00;98533.47;1808697;79;21107;-76
2021/03/15 03:28:06;;;;;;;109.72;43.70;;;;;;;2.53;100.00;98534.02;1819813;78;21133;-75
2021/03/15 03:30:36;;;;;;;113.57;49.70;;;;;;;2.54;100.00;98536.44;1819788;78;21552;-75
2021/03/15 03:33:09;;;;;;;126.87;51.53;;;;;;;2.52;100.00;98535.92;1819831;78;20946;-75
2021/03/15 03:35:37;;;;;;;134.32;59.98;;;;;;;2.50;100.00;98534.05;1819873;78;21014;-75
2021/03/15 03:38:04;;;;;;;114.00;46.90;;;;;;;2.50;100.00;98532.69;1819815;78;20946;-72
2021/03/15 03:40:31;;;;;;;112.95;44.23;;;;;;;2.50;100.00;98528.63;1819785;78;20930;-73
2021/03/15 03:42:59;;;;;;;99.67;39.58;;;;;;;2.48;100.00;98522.69;1818425;78;21320;-73
2021/03/15 03:45:27;;;;;;;89.35;36.90;;;;;;;2.44;100.00;98521.65;1815924;78;21184;-73
2021/03/15 03:47:54;;;;;;;92.20;38.73;;;;;;;2.39;100.00;98523.06;1800074;79;21163;-72
2021/03/15 03:50:26;;;;;;;111.45;45.05;;;;;;;2.39;100.00;98523.06;1809170;79;21643;-75
2021/03/15 03:53:04;;;;;;;105.52;42.00;;;;;;;2.35;100.00;98528.79;1787781;78;21517;-73
2021/03/15 03:55:37;;;;;;;93.58;37.00;;;;;;;2.32;100.00;98522.59;1782432;80;21421;-73
2021/03/15 03:58:06;;;;;;;92.05;40.48;;;;;;;2.29;100.00;98521.84;1786310;80;21068;-72
2021/03/15 04:00:33;;;;;;;94.40;39.35;;;;;;;2.26;100.00;98522.41;1775096;79;21082;-72
2021/03/15 04:03:08;;;;;;;97.25;42.27;;;;;;;2.25;100.00;98528.38;1772641;79;21089;-72
2021/03/15 04:05:36;;;;;;;106.32;44.50;;;;;;;2.25;100.00;98527.02;1765570;81;21604;-73
2021/03/15 04:08:13;;;;;;;110.32;44.70;;;;;;;2.27;100.00;98531.60;1789785;80;21368;-73
2021/03/15 04:10:41;;;;;;;130.22;57.65;;;;;;;2.32;100.00;98545.06;1767473;81;21537;-73
2021/03/15 04:13:11;;;;;;;143.50;64.72;;;;;;;2.35;100.00;98538.81;1789897;80;21535;-73
2021/03/15 04:15:44;;;;;;;135.05;62.43;;;;;;;2.39;100.00;98544.73;1789895;80;21127;-73
2021/03/15 04:18:17;;;;;;;138.85;61.63;;;;;;;2.44;100.00;98546.58;1767555;81;21497;-73
2021/03/15 04:20:47;;;;;;;112.83;47.65;;;;;;;2.49;100.00;98552.75;1789836;80;21190;-72
2021/03/15 04:23:19;;;;;;;112.20;47.40;;;;;;;2.51;100.00;98554.63;1789761;80;21107;-75
2021/03/15 04:25:46;;;;;;;105.20;44.60;;;;;;;2.55;100.00;98559.73;1759519;80;21596;-74
2021/03/15 04:28:14;;;;;;;89.85;40.78;;;;;;;2.56;100.00;98561.34;1789752;80;21068;-76
2021/03/15 04:30:42;;;;;;;125.30;52.08;;;;;;;2.55;100.00;98563.80;1750217;81;21073;-73
2021/03/15 04:33:10;;;;;;;115.70;51.60;;;;;;;2.54;100.00;98572.20;1789825;80;21134;-74
2021/03/15 04:35:41;;;;;;;96.37;41.58;;;;;;;2.55;100.00;98573.28;1789840;80;21567;-75
2021/03/15 04:38:10;;;;;;;99.30;41.58;;;;;;;2.60;100.00;98571.06;1755795;81;20993;-75
2021/03/15 04:40:39;;;;;;;93.10;40.08;;;;;;;2.62;100.00;98567.52;1789789;80;21009;-71
2021/03/15 04:43:09;;;;;;;79.45;36.15;;;;;;;2.62;100.00;98571.03;1750479;81;21073;-74
2021/03/15 04:45:43;;;;;;;74.87;34.27;;;;;;;2.64;100.00;98568.84;1797416;78;21210;-74
2021/03/15 04:48:15;;;;;;;80.85;36.63;;;;;;;2.65;100.00;98566.40;1796645;79;20950;-74
2021/03/15 04:50:46;;;;;;;90.10;41.30;;;;;;;2.65;100.00;98565.05;1762290;79;21502;-74
2021/03/15 04:53:13;;;;;;;83.62;40.83;;;;;;;2.67;100.00;98570.17;1792319;78;21041;-74
2021/03/15 04:55:42;;;;;;;88.58;38.50;;;;;;;2.69;100.00;98576.11;1830888;78;20938;-74
2021/03/15 04:58:12;;;;;;;82.42;38.28;;;;;;;2.70;100.00;98569.60;1831030;78;21212;-73
2021/03/15 05:00:42;;;;;;;73.57;35.10;;;;;;;2.73;100.00;98568.22;1801522;78;20986;-73
2021/03/15 05:03:13;;;;;;;70.30;32.85;;;;;;;2.76;100.00;98564.93;1831022;78;21571;-72
2021/03/15 05:05:43;;;;;;;66.70;32.58;;;;;;;2.80;100.00;98565.97;1831194;78;21485;-72
2021/03/15 05:08:12;;;;;;;67.25;31.93;;;;;;;2.81;100.00;98561.62;1831058;78;21532;-73
2021/03/15 05:10:40;;;;;;;69.92;32.93;;;;;;;2.83;100.00;98566.75;1830989;78;21109;-71
2021/03/15 05:13:09;;;;;;;65.40;33.65;;;;;;;2.84;100.00;98568.36;1830894;78;20998;-74
2021/03/15 05:15:37;;;;;;;63.58;31.62;;;;;;;2.85;100.00;98570.78;1830989;78;21100;-71
2021/03/15 05:18:08;;;;;;;58.50;30.08;;;;;;;2.86;100.00;98563.47;1830475;78;21001;-73
2021/03/15 05:20:36;;;;;;;65.17;32.28;;;;;;;2.88;100.00;98566.14;1830617;78;21156;-76
2021/03/15 05:23:08;;;;;;;57.43;29.20;;;;;;;2.89;100.00;98567.73;1830339;78;21142;-73
2021/03/15 05:25:38;;;;;;;62.25;28.95;;;;;;;2.91;100.00;98568.25;1829933;78;21149;-73
2021/03/15 05:28:06;;;;;;;63.80;30.80;;;;;;;2.90;100.00;98563.92;1830374;78;20977;-72
2021/03/15 05:30:37;;;;;;;57.90;29.55;;;;;;;2.90;100.00;98568.53;1830287;78;21187;-73
2021/03/15 05:33:05;;;;;;;58.45;29.05;;;;;;;2.90;100.00;98567.18;1830737;78;21033;-78
2021/03/15 05:35:32;;;;;;;59.50;29.60;;;;;;;2.89;100.00;98579.12;1831087;78;21995;-75
2021/03/15 05:38:00;;;;;;;64.62;32.25;;;;;;;2.89;100.00;98571.80;1830544;78;20989;-74
2021/03/15 05:40:28;;;;;;;69.50;32.55;;;;;;;2.91;100.00;98579.09;1810975;78;21115;-77
2021/03/15 05:43:28;;;;;;;69.62;34.95;;;;;;;2.90;100.00;98576.12;1818411;78;20931;-73
2021/03/15 05:46:23;;;;;;;63.23;31.35;;;;;;;2.90;100.00;98574.77;1831037;78;20926;-74
2021/03/15 05:49:30;;;;;;;67.40;34.23;;;;;;;2.91;100.00;98575.02;1831008;78;21545;-73
2021/03/15 05:52:17;;;;;;;68.57;32.35;;;;;;;2.95;100.00;98573.90;1830692;78;21544;-72
2021/03/15 05:55:12;;;;;;;67.15;32.53;;;;;;;3.02;100.00;98576.27;1829838;78;20922;-77
2021/03/15 05:58:14;;;;;;;63.40;30.25;;;;;;;3.06;100.00;98580.81;1828724;78;21104;-75
2021/03/15 06:01:08;;;;;;;63.42;32.23;;;;;;;3.10;100.00;98583.20;1795212;78;21080;-75
2021/03/15 06:03:57;;;;;;;62.50;31.00;;;;;;;3.16;100.00;98586.11;1829970;78;21336;-74
2021/03/15 06:06:28;;;;;;;62.23;30.05;;;;;;;3.19;100.00;98578.75;1792854;78;20946;-75
2021/03/15 06:08:59;;;;;;;62.98;32.85;;;;;;;3.26;100.00;98578.40;1795747;78;21081;-76
2021/03/15 06:11:27;;;;;;;66.50;31.07;;;;;;;3.34;100.00;98576.94;1830077;78;21026;-71
2021/03/15 06:13:55;;;;;;;63.98;31.25;;;;;;;3.41;100.00;98572.77;1829922;78;22200;-74
2021/03/15 06:16:22;;;;;;;83.37;38.70;;;;;;;3.48;100.00;98575.09;1829794;78;21477;-71
2021/03/15 06:18:50;;;;;;;81.37;40.63;;;;;;;3.52;100.00;98570.14;1795545;78;21028;-76
2021/03/15 06:21:17;;;;;;;72.03;36.60;;;;;;;3.58;100.00;98574.95;1829821;78;20986;-74
2021/03/15 06:23:46;;;;;;;71.20;36.08;;;;;;;3.61;100.00;98566.22;1829818;78;21056;-71
2021/03/15 06:26:14;;;;;;;70.55;36.15;;;;;;;3.65;100.00;98565.89;1829794;78;20906;-71
2021/03/15 06:28:41;;;;;;;71.67;36.55;;;;;;;3.71;100.00;98574.22;1829782;78;21359;-70
2021/03/15 06:31:09;;;;;;;67.65;34.10;;;;;;;3.79;100.00;98578.17;1829689;78;21001;-70
2021/03/15 06:33:37;;;;;;;66.85;34.67;;;;;;;3.79;100.00;98570.84;1795460;78;21159;-71
2021/03/15 06:36:05;;;;;;;65.25;36.20;;;;;;;3.84;100.00;98569.41;1829110;78;21125;-71
2021/03/15 06:38:35;;;;;;;63.87;33.78;;;;;;;3.90;100.00;98570.94;1829264;78;21576;-71
2021/03/15 06:41:05;;;;;;;66.90;34.05;;;;;;;3.93;100.00;98579.85;1769212;78;21140;-71
2021/03/15 06:43:32;;;;;;;74.97;37.60;;;;;;;3.91;100.00;98579.34;1829014;78;20982;-70
2021/03/15 06:46:00;;;;;;;83.15;41.80;;;;;;;3.89;100.00;98580.73;1829088;78;20989;-71
2021/03/15 06:48:28;;;;;;;92.20;45.38;;;;;;;3.88;100.00;98584.00;1829186;78;21167;-72
2021/03/15 06:50:56;;;;;;;83.30;41.63;;;;;;;3.90;100.00;98577.73;1825068;78;21152;-70
2021/03/15 06:53:24;;;;;;;85.92;45.65;;;;;;;3.93;100.00;98571.70;1821734;78;21361;-71
2021/03/15 06:55:53;;;;;;;90.17;43.92;;;;;;;3.97;100.00;98578.16;1855344;77;21164;-72
2021/03/15 06:58:28;;;;;;;81.85;40.23;;;;;;;3.98;100.00;98578.41;1854678;77;21141;-70
2021/03/15 07:01:14;;;;;;;83.80;39.67;;;;;;;3.96;100.00;98583.88;1821301;78;21256;-71
2021/03/15 07:03:43;;;;;;;79.17;38.60;;;;;;;3.90;100.00;98580.44;1821442;78;21188;-69
2021/03/15 07:06:11;;;;;;;82.55;40.40;;;;;;;3.81;100.00;98582.20;1855132;77;21358;-68
2021/03/15 07:08:39;;;;;;;80.97;39.35;;;;;;;3.76;100.00;98580.93;1821483;78;21132;-70
2021/03/15 07:11:25;;;;;;;73.95;38.33;;;;;;;3.71;100.00;98570.70;1836752;77;20997;-70
2021/03/15 07:13:52;;;;;;;66.40;34.95;;;;;;;3.69;100.00;98575.06;1855563;77;21164;-70
2021/03/15 07:16:28;;;;;;;68.25;34.10;;;;;;;3.67;100.00;98569.12;1858227;77;21156;-70
2021/03/15 07:18:59;;;;;;;79.07;39.65;;;;;;;3.63;100.00;98574.88;1858689;77;21324;-71
2021/03/15 07:21:39;;;;;;;73.05;36.88;;;;;;;3.59;100.00;98571.14;1858597;77;21453;-70
2021/03/15 07:24:10;;;;;;;58.28;33.42;;;;;;;3.58;100.00;98574.95;1858733;77;21135;-69
2021/03/15 07:26:45;;;;;;;65.83;34.67;;;;;;;3.55;100.00;98576.34;1858925;77;21176;-70
2021/03/15 07:29:17;;;;;;;55.67;31.17;;;;;;;3.47;100.00;98575.64;1859345;77;21603;-71
2021/03/15 07:31:46;;;;;;;98.60;46.88;;;;;;;3.42;100.00;98573.58;1828542;77;21213;-72
2021/03/15 07:34:19;;;;;;;80.55;38.53;;;;;;;3.34;100.00;98568.80;1794420;79;21037;-73
2021/03/15 07:36:56;;;;;;;73.05;36.17;;;;;;;3.36;100.00;98566.61;1794551;80;29030;-72
2021/03/15 07:39:27;;;;;;;57.17;31.42;;;;;;;3.35;100.00;98574.48;1794312;80;21090;-72
2021/03/15 07:41:57;;;;;;;59.13;32.10;;;;;;;3.39;100.00;98570.09;1794385;80;21065;-72
2021/03/15 07:44:34;;;;;;;54.58;30.37;;;;;;;3.42;100.00;98579.81;1794197;80;21201;-72
2021/03/15 07:47:06;;;;;;;57.62;31.60;;;;;;;3.44;100.00;98573.55;1794376;80;21501;-71
2021/03/15 07:49:38;;;;;;;55.12;31.45;;;;;;;3.49;100.00;98574.80;1793315;79;21148;-72
2021/03/15 07:52:13;;;;;;;57.23;32.75;;;;;;;3.53;100.00;98575.83;1793101;80;21209;-73
2021/03/15 07:54:43;;;;;;;56.80;32.53;;;;;;;3.58;100.00;98574.40;1793126;80;21618;-74
2021/03/15 07:57:26;;;;;;;58.58;32.88;;;;;;;3.61;100.00;98578.44;1793425;80;21375;-71
2021/03/15 07:59:55;;;;;;;;;;;;;;;3.61;100.00;98576.53;1796418;80;21162;-72
2021/03/15 08:02:28;;;;;;;46.53;27.30;;;;;;;3.59;100.00;98579.28;1793763;80;20505;-69
2021/03/15 08:04:58;;;;;;;44.27;25.77;;;;;;;3.58;100.00;98577.66;1794110;80;21656;-71
2021/03/15 08:07:27;;;;;;;43.87;27.67;;;;;;;3.58;100.00;98581.19;1793843;80;21137;-70
2021/03/15 08:09:57;;;;;;;51.98;29.00;;;;;;;3.55;100.00;98573.63;1794372;80;22003;-71
2021/03/15 08:12:32;;;;;;;42.23;26.55;;;;;;;3.55;100.00;98572.27;1794325;80;21502;-69
2021/03/15 08:15:07;;;;;;;48.42;27.80;;;;;;;3.58;100.00;98568.97;1794310;80;21014;-70
2021/03/15 08:17:45;;;;;;;50.15;29.82;;;;;;;3.58;100.00;98564.09;1793705;80;21078;-69
2021/03/15 08:20:17;;;;;;;50.63;28.70;;;;;;;3.60;100.00;98561.89;1794354;80;21054;-69
2021/03/15 08:22:48;;;;;;;49.75;29.02;;;;;;;3.61;100.00;98568.94;1793724;80;21208;-70
2021/03/15 08:25:16;;;;;;;49.65;29.67;;;;;;;3.54;100.00;98567.14;1810402;78;20903;-69
2021/03/15 08:27:43;;;;;;;54.05;30.45;;;;;;;3.50;100.00;98570.18;1826751;78;20919;-69
2021/03/15 08:30:23;;;;;;;49.73;29.90;;;;;;;3.49;100.00;98580.23;1821991;78;21041;-72
2021/03/15 08:32:50;;;;;;;56.02;30.52;;;;;;;3.51;100.00;98572.59;1821408;78;21647;-71
2021/03/15 08:35:18;;;;;;;52.55;28.73;;;;;;;3.52;100.00;98573.41;1855571;77;21382;-71
2021/03/15 08:38:00;;;;;;;48.60;28.02;;;;;;;3.51;100.00;98577.22;1822089;78;21960;-72
2021/03/15 08:40:48;;;;;;;50.25;29.50;;;;;;;3.52;100.00;98577.48;1855975;77;20962;-70
2021/03/15 08:43:25;;;;;;;53.50;30.37;;;;;;;3.55;100.00;98570.11;1821319;78;21232;-71
2021/03/15 08:46:02;;;;;;;47.25;28.52;;;;;;;3.59;100.00;98571.14;1822744;78;21032;-72
2021/03/15 08:48:41;;;;;;;43.95;26.77;;;;;;;3.69;100.00;98568.27;1837560;77;21299;-71
2021/03/15 08:51:10;;;;;;;46.90;27.17;;;;;;;3.73;100.00;98572.02;1822496;78;20974;-70
2021/03/15 08:53:44;;;;;;;47.80;26.95;;;;;;;3.75;100.00;98569.01;1816372;77;21068;-72
2021/03/15 08:56:16;;;;;;;55.03;30.02;;;;;;;3.77;100.00;98574.40;1815819;78;21473;-77
2021/03/15 08:58:52;;;;;;;57.13;31.52;;;;;;;3.78;100.00;98573.30;1781570;78;21102;-74
2021/03/15 09:01:25;;;;;;;48.63;27.27;;;;;;;3.80;100.00;98574.36;1830156;78;21386;-71
2021/03/15 09:03:59;;;;;;;46.28;25.92;;;;;;;3.82;100.00;98578.39;1826424;78;21621;-71
2021/03/15 09:06:44;;;;;;;40.35;24.25;;;;;;;3.81;100.00;98582.20;1830134;78;21025;-74
2021/03/15 09:09:22;;;;;;;38.25;21.65;;;;;;;3.75;100.00;98583.38;1826377;78;20936;-76
2021/03/15 09:11:58;;;;;;;42.62;24.37;;;;;;;3.73;100.00;98584.23;1830197;78;20934;-69
2021/03/15 09:14:30;;;;;;;46.58;25.68;;;;;;;3.74;100.00;98589.11;1826469;78;21494;-69
2021/03/15 09:17:17;;;;;;;45.05;26.48;;;;;;;3.76;100.00;98580.12;1830227;78;21118;-72
2021/03/15 09:19:47;;;;;;;50.00;28.23;;;;;;;3.80;100.00;98582.50;1826395;78;21043;-69
2021/03/15 09:22:30;;;;;;;57.10;29.67;;;;;;;3.87;100.00;98586.46;1830163;78;21048;-70
2021/03/15 09:25:03;;;;;;;53.75;26.15;;;;;;;3.89;100.00;98582.90;1826301;78;21144;-71
2021/03/15 09:27:42;;;;;;;43.85;25.00;;;;;;;3.91;100.00;98581.25;1830215;78;21305;-71
2021/03/15 09:30:35;;;;;;;45.52;24.07;;;;;;;3.87;100.00;98586.46;1825985;77;21115;-70
2021/03/15 09:33:01;;;;;;;48.85;28.12;;;;;;;3.83;100.00;98586.80;1813612;78;21013;-71
2021/03/15 09:35:40;;;;;;;49.95;27.87;;;;;;;3.83;100.00;98580.00;1826041;78;21055;-71
2021/03/15 09:38:12;;;;;;;45.65;25.70;;;;;;;3.86;100.00;98581.33;1815640;78;21142;-70
2021/03/15 09:40:45;;;;;;;44.27;24.37;;;;;;;3.89;100.00;98578.83;1826332;78;21199;-69
2021/03/15 09:43:23;;;;;;;41.65;25.17;;;;;;;3.89;100.00;98576.66;1826636;78;20998;-68
2021/03/15 09:45:55;;;;;;;47.67;25.97;;;;;;;3.87;100.00;98579.67;1825548;78;21164;-67
2021/03/15 09:48:24;;;;;;;43.75;24.18;;;;;;;3.89;100.00;98574.75;1827697;78;21068;-68
2021/03/15 09:50:57;;;;;;;45.33;25.62;;;;;;;3.93;100.00;98573.06;1797439;79;20951;-67
2021/03/15 09:53:28;;;;;;;46.20;26.10;;;;;;;3.99;100.00;98575.15;1792935;79;21177;-68
2021/03/15 09:56:09;;;;;;;41.42;23.80;;;;;;;4.10;100.00;98575.77;1873649;76;22755;-70
2021/03/15 09:58:43;;;;;;;41.50;22.93;;;;;;;4.14;100.00;98574.06;1841669;78;20909;-68
2021/03/15 10:01:20;;;;;;;45.15;22.87;;;;;;;4.14;100.00;98574.06;1841579;78;21196;-68
2021/03/15 10:04:06;;;;;;;46.08;23.75;;;;;;;4.19;100.00;98574.78;1841594;77;20944;-69
2021/03/15 10:06:45;;;;;;;41.77;22.52;;;;;;;4.22;100.00;98575.55;1734684;82;20948;-70
2021/03/15 10:09:31;;;;;;;43.80;22.32;;;;;;;4.22;100.00;98571.48;1841692;78;20991;-70
2021/03/15 10:12:20;;;;;;;44.73;22.75;;;;;;;4.24;100.00;98571.98;1841682;77;21575;-71
2021/03/15 10:15:00;;;;;;;40.03;23.10;;;;;;;4.23;100.00;98568.20;1838213;78;21035;-69
2021/03/15 10:17:30;;;;;;;41.18;21.62;;;;;;;4.21;100.00;98564.43;1838406;76;21035;-72
2021/03/15 10:20:00;;;;;;;41.15;24.00;;;;;;;4.19;100.00;98558.48;1822808;78;20975;-70
2021/03/15 10:22:29;;;;;;;42.55;23.52;;;;;;;4.15;100.00;98561.55;1759369;81;21025;-71
2021/03/15 10:24:59;;;;;;;40.50;22.80;;;;;;;4.12;100.00;98559.97;1759288;81;21002;-70
2021/03/15 10:27:29;;;;;;;45.28;23.55;;;;;;;4.12;100.00;98559.97;1759498;81;21568;-74
2021/03/15 10:30:01;;;;;;;40.78;22.80;;;;;;;4.12;100.00;98556.70;1759659;81;20938;-70
2021/03/15 10:32:30;;;;;;;40.58;22.07;;;;;;;4.14;100.00;98550.42;1759662;81;21013;-69
2021/03/15 10:35:02;;;;;;;44.05;23.15;;;;;;;4.17;100.00;98541.68;1751248;82;21016;-68
2021/03/15 10:37:33;;;;;;;41.42;23.92;;;;;;;4.20;100.00;98539.73;1751270;81;21064;-68
2021/03/15 10:40:18;;;;;;;45.00;24.45;;;;;;;4.29;100.00;98537.13;1873733;76;22652;-71
2021/03/15 10:42:46;;;;;;;41.40;23.70;;;;;;;4.29;100.00;98539.84;1811487;78;20920;-72
2021/03/15 10:45:14;;;;;;;38.60;21.35;;;;;;;4.31;100.00;98535.73;1779447;79;21199;-72
2021/03/15 10:47:43;;;;;;;31.93;19.07;;;;;;;4.34;100.00;98540.31;1807853;78;20955;-73
2021/03/15 10:50:35;;;;;;;30.40;18.20;;;;;;;4.34;100.00;98539.76;1808538;79;20916;-73
2021/03/15 10:53:14;;;;;;;30.17;17.55;;;;;;;4.36;100.00;98537.55;1873705;76;22626;-71
2021/03/15 10:55:43;;;;;;;34.08;19.98;;;;;;;4.29;99.82;98548.00;1841717;78;21557;-73
2021/03/15 10:58:15;;;;;;;35.80;18.52;;;;;;;4.26;99.88;98549.95;1815210;78;22069;-73
2021/03/15 11:01:01;;;;;;;42.88;24.10;;;;;;;4.29;99.96;98546.64;1886213;75;22663;-72
2021/03/15 11:03:31;;;;;;;34.67;20.23;;;;;;;4.21;99.81;98548.69;1816842;77;21547;-71
2021/03/15 11:06:09;;;;;;;32.30;18.20;;;;;;;4.19;100.00;98548.17;1815611;79;21327;-72
2021/03/15 11:08:37;;;;;;;26.20;15.93;;;;;;;4.19;100.00;98550.89;1816624;78;20933;-72
2021/03/15 11:11:22;;;;;;;27.42;17.05;;;;;;;4.18;99.88;98550.08;1816671;79;21028;-71
2021/03/15 11:13:57;;;;;;;26.12;15.95;;;;;;;4.19;99.86;98548.17;1816298;79;20977;-72
2021/03/15 11:16:27;;;;;;;;;;;;;;;4.21;99.97;98541.89;1819367;78;20929;-72
2021/03/15 11:19:12;;;;;;;22.60;13.58;;;;;;;4.24;100.00;98541.30;1816622;78;22051;-72
2021/03/15 11:21:45;;;;;;;30.72;17.32;;;;;;;4.24;100.00;98542.10;1816457;79;21016;-71
2021/03/15 11:24:29;;;;;;;26.77;15.35;;;;;;;4.26;99.72;98538.53;1872978;76;22663;-70
2021/03/15 11:27:03;;;;;;;22.75;13.98;;;;;;;4.25;99.81;98536.12;1840092;78;20972;-71
2021/03/15 11:29:39;;;;;;;19.42;11.60;;;;;;;4.28;99.95;98534.16;1841018;76;21503;-74
2021/03/15 11:32:19;;;;;;;16.52;11.20;;;;;;;4.36;100.00;98528.04;1872050;76;22741;-70
2021/03/15 11:34:50;;;;;;;16.62;11.18;;;;;;;4.33;99.89;98527.83;1826382;78;20897;-71
2021/03/15 11:37:28;;;;;;;15.88;10.20;;;;;;;4.33;99.85;98525.92;1827398;78;22102;-71
2021/03/15 11:40:07;;;;;;;14.85;9.60;;;;;;;4.36;99.77;98522.61;1873711;75;21933;-73
2021/03/15 11:42:40;;;;;;;18.05;11.03;;;;;;;4.28;99.42;98524.66;1840621;78;20968;-72
2021/03/15 11:45:11;;;;;;;18.87;11.33;;;;;;;4.21;99.20;98523.68;1808999;78;21055;-72